createdAt,value
2017-11-18T00:02:26.843Z,7.80
2017-11-18T00:04:55.156Z,5.40
2017-11-18T00:07:23.480Z,7.00
2017-11-18T00:09:52.532Z,5.90
2017-11-18T00:12:20.836Z,5.87
2017-11-18T00:14:49.144Z,5.47
2017-11-18T00:17:17.446Z,6.17
2017-11-18T00:19:45.868Z,5.63
2017-11-18T00:22:14.196Z,6.03
2017-11-18T00:24:42.519Z,5.80
2017-11-18T00:27:11.582Z,4.63
2017-11-18T00:29:39.989Z,17.67
2017-11-18T00:32:08.372Z,6.53
2017-11-18T00:34:36.715Z,4.97
2017-11-18T00:37:05.056Z,5.30
2017-11-18T00:39:33.379Z,4.60
2017-11-18T00:42:01.709Z,4.43
2017-11-18T00:44:30.020Z,5.00
2017-11-18T00:46:58.348Z,4.80
2017-11-18T00:49:27.446Z,6.30
2017-11-18T00:51:55.852Z,6.63
2017-11-18T00:54:24.916Z,5.20
2017-11-18T00:56:53.248Z,5.40
2017-11-18T00:59:22.303Z,10.10
2017-11-18T01:01:50.601Z,8.33
2017-11-18T01:04:18.956Z,7.17
2017-11-18T01:06:47.251Z,8.30
2017-11-18T01:09:15.552Z,7.03
2017-11-18T01:11:43.844Z,7.00
2017-11-18T01:14:12.141Z,9.83
2017-11-18T01:16:40.480Z,7.07
2017-11-18T01:19:09.569Z,8.30
2017-11-18T01:21:38.024Z,8.47
2017-11-18T01:24:06.328Z,7.43
2017-11-18T01:26:34.648Z,7.73
2017-11-18T01:29:03.729Z,9.00
2017-11-18T01:31:32.024Z,8.43
2017-11-18T01:34:00.507Z,10.00
2017-11-18T01:36:28.799Z,9.83
2017-11-18T01:38:57.118Z,12.20
2017-11-18T01:41:26.237Z,11.27
2017-11-18T01:43:54.569Z,10.50
2017-11-18T01:46:22.899Z,9.33
2017-11-18T01:48:51.952Z,8.77
2017-11-18T01:51:20.289Z,9.53
2017-11-18T01:53:48.592Z,7.77
2017-11-18T01:56:17.668Z,6.83
2017-11-18T01:58:46.104Z,7.50
2017-11-18T02:01:14.412Z,7.37
2017-11-18T02:03:42.716Z,7.57
2017-11-18T02:06:11.036Z,7.67
2017-11-18T02:08:39.399Z,7.03
2017-11-18T02:11:08.140Z,7.17
2017-11-18T02:13:36.460Z,7.47
2017-11-18T02:16:04.839Z,6.07
2017-11-18T02:18:33.200Z,6.83
2017-11-18T02:21:02.307Z,7.60
2017-11-18T02:23:30.619Z,7.50
2017-11-18T02:26:00.612Z,8.03
2017-11-18T02:28:28.909Z,9.03
2017-11-18T02:30:57.227Z,7.97
2017-11-18T02:33:25.540Z,7.47
2017-11-18T02:35:53.923Z,8.87
2017-11-18T02:38:22.233Z,9.27
2017-11-18T02:40:50.537Z,9.27
2017-11-18T02:43:18.836Z,10.17
2017-11-18T02:45:47.130Z,9.83
2017-11-18T02:48:15.569Z,8.70
2017-11-18T02:50:43.866Z,7.53
2017-11-18T02:53:12.175Z,7.40
2017-11-18T02:55:40.480Z,7.23
2017-11-18T02:58:08.805Z,7.63
2017-11-18T03:00:38.035Z,8.83
2017-11-18T03:03:06.426Z,7.17
2017-11-18T03:05:35.158Z,8.07
2017-11-18T03:08:03.461Z,9.13
2017-11-18T03:10:31.762Z,7.40
2017-11-18T03:13:00.093Z,9.03
2017-11-18T03:15:28.434Z,7.60
2017-11-18T03:17:56.733Z,6.07
2017-11-18T03:20:25.078Z,6.67
2017-11-18T03:22:53.400Z,5.70
2017-11-18T03:25:21.734Z,6.47
2017-11-18T03:27:50.793Z,5.37
2017-11-18T03:30:19.089Z,5.50
2017-11-18T03:32:47.378Z,5.53
2017-11-18T03:35:15.708Z,5.33
2017-11-18T03:37:44.753Z,4.80
2017-11-18T03:40:13.087Z,6.20
2017-11-18T03:42:42.245Z,4.33
2017-11-18T03:45:10.594Z,4.63
2017-11-18T03:47:39.670Z,5.37
2017-11-18T03:50:08.033Z,4.30
2017-11-18T03:52:36.330Z,5.00
2017-11-18T03:55:04.691Z,5.43
2017-11-18T03:57:33.141Z,5.27
2017-11-18T04:00:01.628Z,3.03
2017-11-18T04:02:29.953Z,4.37
2017-11-18T04:04:59.080Z,4.03
2017-11-18T04:07:27.382Z,3.87
2017-11-18T04:09:55.704Z,4.50
2017-11-18T04:12:24.032Z,3.60
2017-11-18T04:14:52.336Z,3.90
2017-11-18T04:17:20.616Z,3.97
2017-11-18T04:19:48.905Z,3.80
2017-11-18T04:22:17.185Z,4.20
2017-11-18T04:24:46.276Z,3.77
2017-11-18T04:27:14.662Z,4.20
2017-11-18T04:29:43.720Z,3.53
2017-11-18T04:32:12.080Z,3.67
2017-11-18T04:34:40.420Z,3.90
2017-11-18T04:37:08.729Z,4.90
2017-11-18T04:39:37.268Z,3.90
2017-11-18T04:42:05.570Z,4.10
2017-11-18T04:44:33.868Z,4.17
2017-11-18T04:47:02.165Z,3.83
2017-11-18T04:49:30.471Z,3.83
2017-11-18T04:51:58.783Z,3.97
2017-11-18T04:54:27.843Z,3.20
2017-11-18T04:56:56.148Z,3.30
2017-11-18T04:59:24.434Z,3.47
2017-11-18T05:01:52.720Z,3.30
2017-11-18T05:04:21.006Z,3.27
2017-11-18T05:06:49.321Z,4.43
2017-11-18T05:09:17.629Z,3.43
2017-11-18T05:11:46.679Z,3.67
2017-11-18T05:14:15.005Z,4.70
2017-11-18T05:16:43.292Z,4.80
2017-11-18T05:19:11.571Z,2.97
2017-11-18T05:21:39.882Z,3.40
2017-11-18T05:24:08.178Z,3.43
2017-11-18T05:26:36.503Z,3.57
2017-11-18T05:29:04.812Z,3.80
2017-11-18T05:31:33.131Z,3.73
2017-11-18T05:34:01.410Z,4.10
2017-11-18T05:36:29.701Z,3.03
2017-11-18T05:38:57.992Z,3.00
2017-11-18T05:41:26.341Z,3.60
2017-11-18T05:43:54.661Z,3.03
2017-11-18T05:46:22.943Z,4.13
2017-11-18T05:48:51.271Z,3.63
2017-11-18T05:51:19.699Z,4.13
2017-11-18T05:53:47.987Z,4.67
2017-11-18T05:56:16.304Z,4.47
2017-11-18T05:58:44.608Z,3.43
2017-11-18T06:01:12.954Z,4.10
2017-11-18T06:03:41.256Z,5.40
2017-11-18T06:06:09.567Z,4.67
2017-11-18T06:08:37.881Z,4.53
2017-11-18T06:11:06.190Z,4.90
2017-11-18T06:13:35.285Z,4.30
2017-11-18T06:16:04.332Z,4.33
2017-11-18T06:18:32.621Z,5.07
2017-11-18T06:21:00.927Z,4.77
2017-11-18T06:23:29.217Z,4.83
2017-11-18T06:25:57.543Z,5.33
2017-11-18T06:28:25.958Z,4.70
2017-11-18T06:30:54.271Z,4.77
2017-11-18T06:33:22.564Z,5.50
2017-11-18T06:35:50.851Z,4.77
2017-11-18T06:38:19.262Z,5.30
2017-11-18T06:40:47.534Z,4.90
2017-11-18T06:43:15.867Z,5.10
2017-11-18T06:45:44.157Z,5.67
2017-11-18T06:48:13.389Z,5.37
2017-11-18T06:50:41.716Z,5.57
2017-11-18T06:53:10.018Z,6.73
2017-11-18T06:55:38.388Z,6.50
2017-11-18T06:58:06.694Z,5.20
2017-11-18T07:00:34.995Z,6.13
2017-11-18T07:03:03.334Z,6.27
2017-11-18T07:05:31.623Z,5.57
2017-11-18T07:07:59.912Z,6.83
2017-11-18T07:10:28.196Z,6.47
2017-11-18T07:12:56.493Z,6.83
2017-11-18T07:15:24.838Z,7.87
2017-11-18T07:17:53.134Z,5.90
2017-11-18T07:20:21.433Z,5.30
2017-11-18T07:22:49.722Z,5.60
2017-11-18T07:25:18.779Z,4.80
2017-11-18T07:27:47.099Z,4.20
2017-11-18T07:30:15.400Z,4.53
2017-11-18T07:32:43.743Z,4.63
2017-11-18T07:35:12.042Z,4.27
2017-11-18T07:37:40.355Z,4.23
2017-11-18T07:40:08.776Z,3.83
2017-11-18T07:42:38.181Z,3.90
2017-11-18T07:45:07.287Z,3.97
2017-11-18T07:47:35.571Z,3.93
2017-11-18T07:50:03.858Z,4.17
2017-11-18T07:52:33.090Z,3.50
2017-11-18T07:55:02.173Z,3.73
2017-11-18T07:57:30.469Z,3.00
2017-11-18T07:59:59.529Z,3.57
2017-11-18T08:02:27.894Z,2.50
2017-11-18T08:04:56.309Z,3.20
2017-11-18T08:07:24.602Z,2.73
2017-11-18T08:09:52.928Z,2.73
2017-11-18T08:12:21.213Z,3.10
2017-11-18T08:14:49.492Z,3.00
2017-11-18T08:17:17.830Z,3.30
2017-11-18T08:19:46.122Z,3.60
2017-11-18T08:22:14.415Z,3.50
2017-11-18T08:24:43.243Z,2.67
2017-11-18T08:27:11.585Z,2.77
2017-11-18T08:29:40.781Z,2.77
2017-11-18T08:32:09.085Z,3.10
2017-11-18T08:34:37.416Z,2.90
2017-11-18T08:37:05.728Z,3.30
2017-11-18T08:39:34.973Z,2.53
2017-11-18T08:42:03.308Z,3.57
2017-11-18T08:44:31.607Z,3.17
2017-11-18T08:46:59.896Z,3.13
2017-11-18T08:49:28.222Z,3.23
2017-11-18T08:51:56.580Z,3.20
2017-11-18T08:54:24.901Z,3.40
2017-11-18T08:56:53.996Z,3.00
2017-11-18T08:59:23.048Z,3.20
2017-11-18T09:01:51.340Z,3.13
2017-11-18T09:04:19.688Z,2.80
2017-11-18T09:06:47.990Z,3.47
2017-11-18T09:09:17.040Z,3.00
2017-11-18T09:11:45.333Z,3.93
2017-11-18T09:14:13.619Z,3.20
2017-11-18T09:16:42.049Z,4.03
2017-11-18T09:19:10.369Z,4.10
2017-11-18T09:21:38.712Z,3.60
2017-11-18T09:24:07.085Z,3.43
2017-11-18T09:26:35.417Z,3.13
2017-11-18T09:29:03.731Z,4.00
2017-11-18T09:31:32.037Z,3.90
2017-11-18T09:34:00.338Z,4.00
2017-11-18T09:36:28.622Z,3.80
2017-11-18T09:38:56.973Z,4.13
2017-11-18T09:41:26.057Z,3.50
2017-11-18T09:43:54.358Z,3.93
2017-11-18T09:46:22.698Z,4.37
2017-11-18T09:48:50.985Z,3.90
2017-11-18T09:51:19.387Z,4.13
2017-11-18T09:53:47.696Z,4.60
2017-11-18T09:56:16.044Z,4.50
2017-11-18T09:58:44.336Z,3.83
2017-11-18T10:01:12.650Z,2.30
2017-11-18T10:03:40.970Z,3.50
2017-11-18T10:06:10.041Z,3.63
2017-11-18T10:08:38.379Z,4.57
2017-11-18T10:11:08.395Z,4.43
2017-11-18T10:13:37.493Z,4.30
2017-11-18T10:16:05.877Z,3.43
2017-11-18T10:18:34.164Z,3.93
2017-11-18T10:21:02.466Z,3.17
2017-11-18T10:23:30.780Z,3.87
2017-11-18T10:25:59.847Z,3.97
2017-11-18T10:28:28.274Z,4.40
2017-11-18T10:30:56.599Z,3.73
2017-11-18T10:33:24.977Z,3.60
2017-11-18T10:35:53.264Z,4.40
2017-11-18T10:38:21.552Z,3.10
2017-11-18T10:40:49.906Z,3.60
2017-11-18T10:43:18.223Z,3.40
2017-11-18T10:45:46.572Z,3.90
2017-11-18T10:48:14.866Z,3.77
2017-11-18T10:50:43.254Z,3.80
2017-11-18T10:53:11.678Z,3.10
2017-11-18T10:55:39.984Z,4.07
2017-11-18T10:58:08.315Z,4.00
2017-11-18T11:00:36.624Z,3.83
2017-11-18T11:03:04.916Z,3.53
2017-11-18T11:05:33.992Z,3.47
2017-11-18T11:08:02.322Z,3.30
2017-11-18T11:10:31.423Z,3.23
2017-11-18T11:13:00.506Z,3.57
2017-11-18T11:15:28.791Z,3.50
2017-11-18T11:17:57.105Z,3.53
2017-11-18T11:20:25.385Z,4.00
2017-11-18T11:22:53.715Z,4.83
2017-11-18T11:25:22.011Z,3.97
2017-11-18T11:27:50.308Z,5.20
2017-11-18T11:30:18.600Z,4.80
2017-11-18T11:32:46.902Z,5.10
2017-11-18T11:35:15.262Z,4.37
2017-11-18T11:37:43.852Z,4.57
2017-11-18T11:40:12.595Z,4.23
2017-11-18T11:42:41.856Z,5.20
2017-11-18T11:45:10.989Z,5.60
2017-11-18T11:47:39.477Z,5.70
2017-11-18T11:50:07.788Z,5.73
2017-11-18T11:52:37.006Z,5.70
2017-11-18T11:55:05.349Z,5.80
2017-11-18T11:57:33.668Z,6.07
2017-11-18T12:00:02.005Z,4.70
2017-11-18T12:02:30.305Z,6.20
2017-11-18T12:04:59.450Z,5.67
2017-11-18T12:07:27.834Z,5.97
2017-11-18T12:09:56.130Z,5.63
2017-11-18T12:12:24.508Z,6.23
2017-11-18T12:14:52.933Z,5.90
2017-11-18T12:17:21.340Z,5.83
2017-11-18T12:19:49.686Z,5.77
2017-11-18T12:22:18.037Z,5.63
2017-11-18T12:24:46.354Z,5.27
2017-11-18T12:27:14.714Z,5.23
2017-11-18T12:29:43.848Z,5.20
2017-11-18T12:32:12.259Z,5.70
2017-11-18T12:34:40.685Z,5.27
2017-11-18T12:37:09.171Z,4.70
2017-11-18T12:39:37.573Z,5.13
2017-11-18T12:42:05.982Z,6.03
2017-11-18T12:44:34.441Z,5.50
2017-11-18T12:47:02.820Z,5.50
2017-11-18T12:49:31.161Z,4.87
2017-11-18T12:52:00.473Z,4.83
2017-11-18T12:54:29.692Z,5.27
2017-11-18T12:56:58.008Z,5.10
2017-11-18T12:59:26.309Z,5.87
2017-11-18T13:01:55.392Z,5.13
2017-11-18T13:04:24.566Z,5.10
2017-11-18T13:06:52.859Z,5.03
2017-11-18T13:09:21.152Z,4.00
2017-11-18T13:11:49.465Z,5.93
2017-11-18T13:14:18.546Z,5.13
2017-11-18T13:16:46.832Z,5.43
2017-11-18T13:19:15.119Z,4.27
2017-11-18T13:21:43.423Z,6.10
2017-11-18T13:24:11.739Z,6.00
2017-11-18T13:26:40.059Z,5.00
2017-11-18T13:29:08.431Z,5.20
2017-11-18T13:31:36.754Z,4.63
2017-11-18T13:34:06.016Z,5.27
2017-11-18T13:36:34.359Z,4.97
2017-11-18T13:39:02.661Z,5.67
2017-11-18T13:41:30.952Z,5.87
2017-11-18T13:43:59.260Z,5.50
2017-11-18T13:46:28.375Z,6.13
2017-11-18T13:48:57.446Z,5.63
2017-11-18T13:51:26.652Z,5.90
2017-11-18T13:53:54.972Z,6.40
2017-11-18T13:56:24.107Z,5.57
2017-11-18T13:58:52.453Z,5.90
2017-11-18T14:01:20.736Z,6.37
2017-11-18T14:03:49.033Z,6.23
2017-11-18T14:06:17.374Z,6.33
2017-11-18T14:08:45.668Z,5.20
2017-11-18T14:11:13.961Z,6.60
2017-11-18T14:13:42.271Z,6.07
2017-11-18T14:16:10.647Z,5.93
2017-11-18T14:18:39.018Z,5.20
2017-11-18T14:21:07.431Z,5.77
2017-11-18T14:23:35.794Z,6.80
2017-11-18T14:26:04.250Z,6.50
2017-11-18T14:28:33.419Z,5.50
2017-11-18T14:31:01.748Z,6.60
2017-11-18T14:33:30.034Z,6.70
2017-11-18T14:35:58.362Z,6.83
2017-11-18T14:38:26.844Z,7.60
2017-11-18T14:40:55.404Z,7.00
2017-11-18T14:43:23.970Z,7.40
2017-11-18T14:45:53.103Z,7.80
2017-11-18T14:48:21.415Z,7.43
2017-11-18T14:50:49.743Z,8.07
2017-11-18T14:53:18.061Z,7.60
2017-11-18T14:55:46.376Z,7.70
2017-11-18T14:58:14.689Z,7.20
2017-11-18T15:00:43.758Z,8.00
2017-11-18T15:03:12.105Z,8.77
2017-11-18T15:05:40.429Z,7.73
2017-11-18T15:08:08.757Z,9.20
2017-11-18T15:10:37.119Z,9.90
2017-11-18T15:13:05.430Z,9.90
2017-11-18T15:15:34.589Z,9.60
2017-11-18T15:21:08.318Z,8.63
2017-11-18T15:23:42.293Z,8.03
2017-11-18T15:26:16.302Z,9.10
2017-11-18T15:28:50.262Z,9.90
2017-11-18T15:31:25.021Z,8.60
2017-11-18T15:33:54.895Z,9.70
2017-11-18T15:36:28.776Z,8.70
2017-11-18T15:38:57.214Z,8.47
2017-11-18T15:41:25.511Z,7.20
2017-11-18T15:44:10.590Z,7.77
2017-11-18T15:46:49.754Z,7.80
2017-11-18T15:52:32.884Z,9.17
2017-11-18T15:55:01.224Z,8.90
2017-11-18T15:57:30.290Z,8.83
2017-11-18T15:59:58.589Z,9.57
2017-11-18T16:02:46.715Z,9.77
2017-11-18T16:05:15.030Z,9.00
2017-11-18T16:07:44.161Z,9.90
2017-11-18T16:10:13.290Z,10.90
2017-11-18T16:12:41.638Z,11.47
2017-11-18T16:15:09.977Z,11.20
2017-11-18T16:17:38.424Z,12.77
2017-11-18T16:20:07.616Z,11.73
2017-11-18T16:22:35.987Z,12.57
2017-11-18T16:25:04.356Z,11.20
2017-11-18T16:27:32.675Z,11.57
2017-11-18T16:30:00.969Z,13.60
2017-11-18T16:32:29.323Z,11.40
2017-11-18T16:34:57.692Z,12.00
2017-11-18T16:37:25.996Z,11.47
2017-11-18T16:39:55.060Z,12.53
2017-11-18T16:42:23.371Z,13.23
2017-11-18T16:44:52.502Z,14.10
2017-11-18T16:47:20.894Z,13.97
2017-11-18T16:49:49.225Z,12.77
2017-11-18T16:52:17.562Z,12.33
2017-11-18T16:54:46.692Z,10.80
2017-11-18T16:57:15.791Z,11.17
2017-11-18T16:59:44.192Z,11.20
2017-11-18T17:02:12.534Z,12.10
2017-11-18T17:04:41.010Z,11.83
2017-11-18T17:07:09.404Z,12.00
2017-11-18T17:09:37.721Z,10.80
2017-11-18T17:12:06.047Z,12.60
2017-11-18T17:14:34.356Z,9.90
2017-11-18T17:17:02.816Z,10.87
2017-11-18T17:19:31.143Z,11.13
2017-11-18T17:21:59.494Z,11.63
2017-11-18T17:24:27.848Z,11.27
2017-11-18T17:26:56.196Z,6.50
2017-11-18T17:29:24.580Z,6.73
2017-11-18T17:31:52.920Z,5.43
2017-11-18T17:34:21.298Z,4.40
2017-11-18T17:36:49.612Z,4.30
2017-11-18T17:39:17.904Z,11.63
2017-11-18T17:41:46.985Z,6.70
2017-11-18T17:44:15.281Z,2.27
2017-11-18T17:46:43.580Z,1.53
2017-11-18T17:49:11.928Z,2.47
2017-11-18T17:51:40.264Z,5.83
2017-11-18T17:54:08.660Z,1.20
2017-11-18T17:56:37.782Z,1.40
2017-11-18T17:59:06.711Z,1.33
2017-11-18T18:01:35.057Z,1.60
2017-11-18T18:04:03.459Z,30.60
2017-11-18T18:06:32.561Z,1.87
2017-11-18T18:09:01.673Z,2.23
2017-11-18T18:11:30.771Z,2.37
2017-11-18T18:13:59.914Z,1.90
2017-11-18T18:16:28.254Z,2.20
2017-11-18T18:18:56.656Z,2.40
2017-11-18T18:21:25.054Z,2.60
2017-11-18T18:23:53.982Z,1.67
2017-11-18T18:26:22.279Z,1.40
2017-11-18T18:28:50.618Z,1.70
2017-11-18T18:31:18.895Z,1.90
2017-11-18T18:33:47.194Z,1.40
2017-11-18T18:36:15.516Z,1.73
2017-11-18T18:38:43.850Z,2.57
2017-11-18T18:41:12.175Z,2.20
2017-11-18T18:43:40.494Z,2.10
2017-11-18T18:46:09.581Z,2.47
2017-11-18T18:48:38.653Z,3.00
2017-11-18T18:51:07.010Z,5.47
2017-11-18T18:53:35.456Z,3.27
2017-11-18T18:56:03.754Z,0.93
2017-11-18T18:58:32.094Z,0.60
2017-11-18T19:01:00.405Z,0.70
2017-11-18T19:03:28.696Z,1.00
2017-11-18T19:05:57.001Z,1.10
2017-11-18T19:08:25.329Z,2.70
2017-11-18T19:10:53.634Z,1.70
2017-11-18T19:13:21.959Z,3.90
2017-11-18T19:15:50.296Z,0.80
2017-11-18T19:18:19.479Z,1.03
2017-11-18T19:20:47.823Z,1.00
2017-11-18T19:23:16.149Z,0.60
2017-11-18T19:25:44.474Z,3.40
2017-11-18T19:28:12.834Z,6.00
2017-11-18T19:30:41.177Z,2.67
2017-11-18T19:33:10.270Z,1.37
2017-11-18T19:35:38.732Z,2.00
2017-11-18T19:38:07.197Z,1.20
2017-11-18T19:40:35.559Z,1.50
2017-11-18T19:43:04.636Z,1.60
2017-11-18T19:45:32.948Z,2.70
2017-11-18T19:48:01.264Z,2.40
2017-11-18T19:50:29.582Z,1.53
2017-11-18T19:52:58.645Z,2.70
2017-11-18T19:55:26.964Z,5.33
2017-11-18T19:57:55.272Z,3.67
2017-11-18T20:00:23.591Z,2.00
2017-11-18T20:02:51.901Z,2.00
2017-11-18T20:05:20.457Z,3.97
2017-11-18T20:07:49.839Z,3.30
2017-11-18T20:10:18.542Z,3.13
2017-11-18T20:12:47.286Z,2.67
2017-11-18T20:15:15.622Z,2.00
2017-11-18T20:17:43.949Z,4.20
2017-11-18T20:20:12.256Z,7.47
2017-11-18T20:22:40.577Z,7.13
2017-11-18T20:25:08.940Z,6.60
2017-11-18T20:27:37.312Z,24.53
2017-11-18T20:30:05.679Z,1.80
2017-11-18T20:32:33.990Z,4.50
2017-11-18T20:35:02.330Z,4.40
2017-11-18T20:37:30.662Z,3.90
2017-11-18T20:39:59.720Z,3.23
2017-11-18T20:42:28.012Z,3.30
2017-11-18T20:44:56.292Z,1.73
2017-11-18T20:47:24.581Z,1.57
2017-11-18T20:49:52.912Z,2.00
2017-11-18T20:52:21.200Z,4.40
2017-11-18T20:54:49.509Z,2.20
2017-11-18T20:57:18.582Z,3.27
2017-11-18T20:59:47.654Z,8.90
2017-11-18T21:02:15.970Z,7.30
2017-11-18T21:04:44.277Z,13.87
2017-11-18T21:07:12.579Z,5.57
2017-11-18T21:09:40.905Z,1.70
2017-11-18T21:12:09.241Z,1.80
2017-11-18T21:14:37.526Z,1.70
2017-11-18T21:17:05.973Z,1.50
2017-11-18T21:19:34.305Z,1.60
2017-11-18T21:22:02.676Z,2.40
2017-11-18T21:24:31.020Z,2.70
2017-11-18T21:27:00.104Z,5.37
2017-11-18T21:29:28.489Z,5.40
2017-11-18T21:31:57.591Z,4.43
2017-11-18T21:34:25.898Z,8.30
2017-11-18T21:36:54.232Z,3.47
2017-11-18T21:39:22.538Z,5.83
2017-11-18T21:41:50.817Z,2.93
2017-11-18T21:44:19.137Z,2.87
2017-11-18T21:46:47.427Z,3.33
2017-11-18T21:49:15.753Z,3.33
2017-11-18T21:51:44.813Z,3.50
2017-11-18T21:54:13.171Z,4.10
2017-11-18T21:56:41.472Z,5.30
2017-11-18T21:59:09.780Z,9.47
2017-11-18T22:01:38.081Z,6.90
2017-11-18T22:04:06.550Z,6.60
2017-11-18T22:06:34.845Z,5.67
2017-11-18T22:09:03.198Z,8.33
2017-11-18T22:11:32.641Z,10.57
2017-11-18T22:14:01.288Z,5.37
2017-11-18T22:16:30.416Z,2.70
2017-11-18T22:18:59.082Z,2.63
2017-11-18T22:21:28.246Z,4.80
2017-11-18T22:23:56.609Z,2.67
2017-11-18T22:26:25.694Z,2.57
2017-11-18T22:28:54.025Z,3.87
2017-11-18T22:31:23.142Z,3.23
2017-11-18T22:33:51.460Z,3.30
2017-11-18T22:36:19.769Z,3.80
2017-11-18T22:38:48.134Z,3.10
2017-11-18T22:41:16.473Z,2.70
2017-11-18T22:43:44.821Z,11.07
2017-11-18T22:46:13.188Z,19.10
2017-11-18T22:48:41.528Z,4.73
2017-11-18T22:51:09.841Z,2.90
2017-11-18T22:53:38.319Z,2.73
2017-11-18T22:56:06.688Z,3.20
2017-11-18T22:58:35.012Z,3.10
2017-11-18T23:01:03.351Z,3.63
2017-11-18T23:03:31.641Z,4.60
2017-11-18T23:05:59.961Z,5.43
2017-11-18T23:08:28.285Z,8.07
2017-11-18T23:10:56.724Z,6.93
2017-11-18T23:13:25.824Z,5.67
2017-11-18T23:15:54.114Z,6.53
2017-11-18T23:18:22.396Z,6.23
2017-11-18T23:20:50.726Z,4.03
2017-11-18T23:23:19.796Z,3.67
2017-11-18T23:25:48.127Z,4.00
2017-11-18T23:28:17.178Z,3.70
2017-11-18T23:30:45.507Z,3.63
2017-11-18T23:33:13.852Z,3.47
2017-11-18T23:35:42.137Z,2.77
2017-11-18T23:38:10.457Z,3.13
2017-11-18T23:40:38.759Z,3.67
2017-11-18T23:43:07.062Z,3.50
2017-11-18T23:45:36.147Z,3.83
2017-11-18T23:48:04.472Z,3.60
2017-11-18T23:50:32.786Z,4.53
2017-11-18T23:53:01.090Z,3.40
2017-11-18T23:55:29.404Z,3.83
2017-11-18T23:57:57.726Z,3.33
